Terminal Aerodrome Forecast
Issued by NWS Cleveland, OH

Home | Current Version | Previous Version | Text Only | Print | Product List | Glossary Off
Versions: 1 2 3 4 5 6 7 8 9 10 11 12 13 14 15 16 17 18

378
FTUS41 KCLE 232337
TAFTOL
TAF
KTOL 232337Z 2400/2424 03008KT P6SM BKN025 OVC050
     FM240400 04008KT P6SM SCT008 OVC015
     FM241600 06010KT P6SM BKN025 BKN035
     FM241900 06008KT P6SM BKN040=

USA.gov is the U.S. government's official web portal to all federal, state and local government web resources and services.